AKJ251 VEBS-VIDP
Flight info
| Callsign | AKJ251 |
|---|---|
| Flight time | 2h 1m |
| Altitude | 34000 |
| Route | GUTID W50 BBN R460 LKN M890 JAL JAL7A |
| Aircraft | B38M/M-SDE1FGHILORVWXY/HB1 |
Departure
| Time | 2026-05-04 15:11 |
|---|---|
| Airport | Biju Patnaik International Airport (VEBS) |
Arrival
| Time | 2026-05-04 17:13 |
|---|---|
| Airport | Indira Gandhi International Airport (VIDP) |
| Time | Latitude | Longitude | Altitude | Speed | Heading |
|---|---|---|---|---|---|
| 2026-05-04 14:49 | 20.25370 | 85.81571 | 126 ft | 0 kts | 53° |
| 2026-05-04 15:03 | 20.25367 | 85.81567 | 126 ft | 2 kts | 53° |
| 2026-05-04 15:03 | 20.25355 | 85.81551 | 122 ft | 3 kts | 50° |
| 2026-05-04 15:04 | 20.25342 | 85.81535 | 123 ft | 3 kts | 41° |
| 2026-05-04 15:04 | 20.25326 | 85.81523 | 123 ft | 3 kts | 16° |
| 2026-05-04 15:04 | 20.25312 | 85.81523 | 125 ft | 2 kts | 326° |
| 2026-05-04 15:04 | 20.25309 | 85.81525 | 125 ft | 0 kts | 320° |
| 2026-05-04 15:07 | 20.25316 | 85.81519 | 122 ft | 3 kts | 320° |
| 2026-05-04 15:07 | 20.25342 | 85.81496 | 123 ft | 7 kts | 320° |
| 2026-05-04 15:07 | 20.25385 | 85.81455 | 123 ft | 10 kts | 304° |
| 2026-05-04 15:07 | 20.25366 | 85.81381 | 125 ft | 13 kts | 235° |
| 2026-05-04 15:08 | 20.25329 | 85.81314 | 123 ft | 6 kts | 274° |
| 2026-05-04 15:08 | 20.25365 | 85.81281 | 124 ft | 8 kts | 327° |
| 2026-05-04 15:08 | 20.25420 | 85.81239 | 122 ft | 11 kts | 323° |
| 2026-05-04 15:08 | 20.25494 | 85.81182 | 124 ft | 15 kts | 324° |
| 2026-05-04 15:09 | 20.25587 | 85.81112 | 122 ft | 18 kts | 325° |
| 2026-05-04 15:09 | 20.25697 | 85.81028 | 121 ft | 21 kts | 322° |
| 2026-05-04 15:09 | 20.25822 | 85.80927 | 118 ft | 24 kts | 324° |
| 2026-05-04 15:10 | 20.26123 | 85.80691 | 116 ft | 22 kts | 323° |
| 2026-05-04 15:10 | 20.26122 | 85.80587 | 115 ft | 16 kts | 230° |
| 2026-05-04 15:10 | 20.25918 | 85.80641 | 117 ft | 28 kts | 143° |
| 2026-05-04 15:11 | 20.25552 | 85.80925 | 121 ft | 103 kts | 144° |
| 2026-05-04 15:11 | 20.24785 | 85.81524 | 145 ft | 166 kts | 143° |
| 2026-05-04 15:11 | 20.23813 | 85.82275 | 860 ft | 176 kts | 147° |
| 2026-05-04 15:11 | 20.22835 | 85.82911 | 1955 ft | 157 kts | 162° |
| 2026-05-04 15:12 | 20.21762 | 85.83011 | 2609 ft | 161 kts | 193° |
| 2026-05-04 15:12 | 20.20755 | 85.82408 | 3079 ft | 176 kts | 224° |
| 2026-05-04 15:12 | 20.20131 | 85.81215 | 3524 ft | 196 kts | 253° |
| 2026-05-04 15:12 | 20.20103 | 85.79700 | 3920 ft | 223 kts | 279° |
| 2026-05-04 15:13 | 20.20749 | 85.78087 | 4309 ft | 251 kts | 302° |
| 2026-05-04 15:13 | 20.21956 | 85.76645 | 4777 ft | 273 kts | 317° |
| 2026-05-04 15:13 | 20.23424 | 85.75258 | 5325 ft | 286 kts | 317° |
| 2026-05-04 15:13 | 20.24900 | 85.73852 | 6279 ft | 283 kts | 318° |
| 2026-05-04 15:14 | 20.26369 | 85.72441 | 7125 ft | 285 kts | 318° |
| 2026-05-04 15:14 | 20.27837 | 85.71026 | 7880 ft | 289 kts | 318° |
| 2026-05-04 15:14 | 20.29327 | 85.69586 | 8673 ft | 291 kts | 318° |
| 2026-05-04 15:14 | 20.30840 | 85.68123 | 9482 ft | 294 kts | 318° |
| 2026-05-04 15:15 | 20.32362 | 85.66649 | 10226 ft | 298 kts | 318° |
| 2026-05-04 15:15 | 20.33920 | 85.65139 | 10916 ft | 303 kts | 317° |
| 2026-05-04 15:15 | 20.35490 | 85.63618 | 11766 ft | 305 kts | 317° |
| 2026-05-04 15:16 | 20.38643 | 85.60563 | 13441 ft | 310 kts | 316° |
| 2026-05-04 15:16 | 20.40255 | 85.59001 | 14210 ft | 314 kts | 316° |
| 2026-05-04 15:16 | 20.43532 | 85.55823 | 15688 ft | 322 kts | 316° |
| 2026-05-04 15:17 | 20.45185 | 85.54220 | 16390 ft | 327 kts | 316° |
| 2026-05-04 15:17 | 20.48603 | 85.50903 | 17794 ft | 335 kts | 316° |
| 2026-05-04 15:17 | 20.50334 | 85.49222 | 18436 ft | 339 kts | 316° |
| 2026-05-04 15:18 | 20.52065 | 85.47540 | 19014 ft | 342 kts | 315° |
| 2026-05-04 15:18 | 20.53836 | 85.45819 | 19619 ft | 345 kts | 315° |
| 2026-05-04 15:18 | 20.55629 | 85.44077 | 20216 ft | 348 kts | 315° |
| 2026-05-04 15:19 | 20.59226 | 85.40579 | 21360 ft | 354 kts | 315° |
| 2026-05-04 15:19 | 20.61059 | 85.38795 | 21933 ft | 357 kts | 315° |
| 2026-05-04 15:19 | 20.64766 | 85.35186 | 23033 ft | 364 kts | 314° |
| 2026-05-04 15:20 | 20.66618 | 85.33383 | 23541 ft | 367 kts | 314° |
| 2026-05-04 15:20 | 20.68520 | 85.31531 | 23983 ft | 369 kts | 314° |
| 2026-05-04 15:20 | 20.70425 | 85.29674 | 24452 ft | 371 kts | 314° |
| 2026-05-04 15:20 | 20.72346 | 85.27801 | 24914 ft | 373 kts | 314° |
| 2026-05-04 15:21 | 20.74250 | 85.25944 | 25366 ft | 375 kts | 314° |
| 2026-05-04 15:21 | 20.76183 | 85.24058 | 25800 ft | 377 kts | 314° |
| 2026-05-04 15:21 | 20.80081 | 85.20253 | 26690 ft | 381 kts | 314° |
| 2026-05-04 15:22 | 20.82053 | 85.18328 | 27108 ft | 383 kts | 314° |
| 2026-05-04 15:22 | 20.84001 | 85.16424 | 27523 ft | 385 kts | 314° |
| 2026-05-04 15:22 | 20.87987 | 85.12528 | 28355 ft | 389 kts | 313° |
| 2026-05-04 15:23 | 20.89988 | 85.10571 | 28756 ft | 391 kts | 313° |
| 2026-05-04 15:23 | 20.92001 | 85.08601 | 29153 ft | 393 kts | 313° |
| 2026-05-04 15:23 | 20.94026 | 85.06618 | 29558 ft | 395 kts | 313° |
| 2026-05-04 15:23 | 20.96034 | 85.04652 | 29933 ft | 397 kts | 313° |
| 2026-05-04 15:24 | 21.00138 | 85.00631 | 30566 ft | 401 kts | 313° |
| 2026-05-04 15:24 | 21.04274 | 84.96577 | 31194 ft | 404 kts | 313° |
| 2026-05-04 15:25 | 21.06327 | 84.94562 | 31503 ft | 406 kts | 313° |
| 2026-05-04 15:25 | 21.08382 | 84.92489 | 31812 ft | 407 kts | 311° |
| 2026-05-04 15:25 | 21.10430 | 84.90370 | 32116 ft | 409 kts | 311° |
| 2026-05-04 15:26 | 21.14530 | 84.86145 | 32700 ft | 412 kts | 312° |
| 2026-05-04 15:26 | 21.16606 | 84.84006 | 32986 ft | 414 kts | 312° |
| 2026-05-04 15:26 | 21.20789 | 84.79696 | 33561 ft | 418 kts | 312° |
| 2026-05-04 15:27 | 21.22895 | 84.77524 | 33806 ft | 420 kts | 312° |
| 2026-05-04 15:27 | 21.27151 | 84.73133 | 33870 ft | 433 kts | 312° |
| 2026-05-04 15:28 | 21.31558 | 84.68581 | 33866 ft | 444 kts | 313° |
| 2026-05-04 15:28 | 21.33786 | 84.66279 | 33881 ft | 444 kts | 313° |
| 2026-05-04 15:29 | 21.40455 | 84.59380 | 33883 ft | 445 kts | 313° |
| 2026-05-04 15:30 | 21.56083 | 84.43180 | 33890 ft | 447 kts | 313° |
| 2026-05-04 15:31 | 21.62776 | 84.36226 | 33892 ft | 447 kts | 313° |
| 2026-05-04 15:32 | 21.73955 | 84.24590 | 33867 ft | 448 kts | 312° |
| 2026-05-04 15:34 | 21.85157 | 84.12905 | 33827 ft | 448 kts | 312° |
| 2026-05-04 15:34 | 21.92179 | 84.06323 | 33823 ft | 456 kts | 330° |
| 2026-05-04 15:35 | 22.01323 | 84.02979 | 33834 ft | 464 kts | 338° |
| 2026-05-04 15:36 | 22.10559 | 83.99898 | 33860 ft | 464 kts | 339° |
| 2026-05-04 15:36 | 22.16717 | 83.97855 | 33877 ft | 465 kts | 339° |
| 2026-05-04 15:37 | 22.22919 | 83.95796 | 33906 ft | 465 kts | 339° |
| 2026-05-04 15:37 | 22.29112 | 83.93738 | 33915 ft | 465 kts | 339° |
| 2026-05-04 15:38 | 22.35258 | 83.91638 | 33921 ft | 465 kts | 338° |
| 2026-05-04 15:38 | 22.41433 | 83.89506 | 33943 ft | 465 kts | 338° |
| 2026-05-04 15:39 | 22.46567 | 83.87733 | 33933 ft | 466 kts | 338° |
| 2026-05-04 15:40 | 22.55815 | 83.84536 | 33946 ft | 467 kts | 338° |
| 2026-05-04 15:40 | 22.62031 | 83.82384 | 33950 ft | 468 kts | 338° |
| 2026-05-04 15:41 | 22.68214 | 83.80242 | 33961 ft | 469 kts | 338° |
| 2026-05-04 15:41 | 22.74432 | 83.78086 | 33955 ft | 469 kts | 338° |
| 2026-05-04 15:42 | 22.80663 | 83.75923 | 33961 ft | 470 kts | 338° |
| 2026-05-04 15:42 | 22.86886 | 83.73761 | 33962 ft | 470 kts | 338° |
| 2026-05-04 15:43 | 22.93148 | 83.71583 | 33964 ft | 471 kts | 338° |
| 2026-05-04 15:43 | 22.99404 | 83.69406 | 33959 ft | 473 kts | 338° |
| 2026-05-04 15:44 | 23.05645 | 83.67230 | 33964 ft | 474 kts | 338° |
| 2026-05-04 15:44 | 23.11955 | 83.65030 | 33960 ft | 475 kts | 338° |
| 2026-05-04 15:45 | 23.18210 | 83.62846 | 33957 ft | 475 kts | 337° |
| 2026-05-04 15:45 | 23.24549 | 83.60631 | 33955 ft | 476 kts | 337° |
| 2026-05-04 15:46 | 23.30823 | 83.58436 | 33946 ft | 476 kts | 337° |
| 2026-05-04 15:46 | 23.37145 | 83.56222 | 33939 ft | 477 kts | 337° |
| 2026-05-04 15:47 | 23.43479 | 83.54002 | 33937 ft | 477 kts | 337° |
| 2026-05-04 15:47 | 23.49781 | 83.51791 | 33929 ft | 478 kts | 337° |
| 2026-05-04 15:48 | 23.56125 | 83.49562 | 33918 ft | 479 kts | 337° |
| 2026-05-04 15:48 | 23.65637 | 83.46217 | 33909 ft | 480 kts | 337° |
| 2026-05-04 15:49 | 23.72026 | 83.43970 | 33897 ft | 481 kts | 338° |
| 2026-05-04 15:49 | 23.78426 | 83.41866 | 33894 ft | 483 kts | 338° |
| 2026-05-04 15:50 | 23.84859 | 83.39742 | 33882 ft | 484 kts | 338° |
| 2026-05-04 15:50 | 23.91310 | 83.37607 | 33882 ft | 484 kts | 338° |
| 2026-05-04 15:51 | 23.97765 | 83.35470 | 33876 ft | 484 kts | 337° |
| 2026-05-04 15:51 | 24.04193 | 83.33340 | 33870 ft | 484 kts | 337° |
| 2026-05-04 15:52 | 24.10649 | 83.31197 | 33861 ft | 484 kts | 337° |
| 2026-05-04 15:52 | 24.17105 | 83.29053 | 33859 ft | 484 kts | 336° |
| 2026-05-04 15:53 | 24.23516 | 83.26922 | 33854 ft | 484 kts | 336° |
| 2026-05-04 15:53 | 24.29972 | 83.24773 | 33851 ft | 484 kts | 336° |
| 2026-05-04 15:54 | 24.36431 | 83.22621 | 33847 ft | 484 kts | 336° |
| 2026-05-04 15:54 | 24.42854 | 83.20478 | 33842 ft | 484 kts | 336° |
| 2026-05-04 15:55 | 24.49313 | 83.18321 | 33854 ft | 484 kts | 336° |
| 2026-05-04 15:55 | 24.55777 | 83.16161 | 33843 ft | 484 kts | 336° |
| 2026-05-04 15:56 | 24.62198 | 83.14012 | 33843 ft | 484 kts | 336° |
| 2026-05-04 15:56 | 24.68654 | 83.11849 | 33836 ft | 484 kts | 336° |
| 2026-05-04 15:57 | 24.75081 | 83.09694 | 33834 ft | 484 kts | 336° |
| 2026-05-04 15:57 | 24.81549 | 83.07522 | 33832 ft | 484 kts | 336° |
| 2026-05-04 15:58 | 24.87973 | 83.05363 | 33825 ft | 485 kts | 336° |
| 2026-05-04 15:58 | 24.94426 | 83.03192 | 33818 ft | 484 kts | 336° |
| 2026-05-04 15:59 | 25.00855 | 83.01026 | 33815 ft | 484 kts | 336° |
| 2026-05-04 15:59 | 25.05179 | 82.99569 | 33822 ft | 485 kts | 336° |
| 2026-05-04 16:00 | 25.10605 | 82.97737 | 33813 ft | 485 kts | 336° |
| 2026-05-04 16:00 | 25.17068 | 82.95554 | 33811 ft | 485 kts | 336° |
| 2026-05-04 16:01 | 25.23533 | 82.93369 | 33821 ft | 485 kts | 336° |
| 2026-05-04 16:01 | 25.29966 | 82.91191 | 33825 ft | 484 kts | 336° |
| 2026-05-04 16:02 | 25.36390 | 82.89014 | 33831 ft | 485 kts | 336° |
| 2026-05-04 16:03 | 25.45520 | 82.84762 | 33820 ft | 456 kts | 310° |
| 2026-05-04 16:03 | 25.49580 | 82.79597 | 33829 ft | 446 kts | 301° |
| 2026-05-04 16:04 | 25.53383 | 82.74155 | 33830 ft | 445 kts | 299° |
| 2026-05-04 16:04 | 25.58948 | 82.65956 | 33823 ft | 445 kts | 299° |
| 2026-05-04 16:05 | 25.62665 | 82.60448 | 33804 ft | 445 kts | 299° |
| 2026-05-04 16:06 | 25.68220 | 82.52202 | 33795 ft | 444 kts | 299° |
| 2026-05-04 16:07 | 25.75600 | 82.41226 | 33801 ft | 444 kts | 299° |
| 2026-05-04 16:08 | 25.82971 | 82.30236 | 33804 ft | 444 kts | 299° |
| 2026-05-04 16:09 | 25.92151 | 82.16514 | 33807 ft | 442 kts | 299° |
| 2026-05-04 16:10 | 25.99486 | 82.05518 | 33809 ft | 442 kts | 299° |
| 2026-05-04 16:11 | 26.06768 | 81.94578 | 33813 ft | 441 kts | 300° |
| 2026-05-04 16:12 | 26.17662 | 81.78162 | 33813 ft | 439 kts | 300° |
| 2026-05-04 16:13 | 26.24889 | 81.67239 | 33817 ft | 438 kts | 300° |
| 2026-05-04 16:14 | 26.32094 | 81.56322 | 33820 ft | 436 kts | 300° |
| 2026-05-04 16:16 | 26.41060 | 81.42701 | 33825 ft | 435 kts | 300° |
| 2026-05-04 16:17 | 26.50003 | 81.29075 | 33830 ft | 435 kts | 300° |
| 2026-05-04 16:18 | 26.57003 | 81.18381 | 33833 ft | 435 kts | 300° |
| 2026-05-04 16:19 | 26.65922 | 81.04719 | 33830 ft | 436 kts | 300° |
| 2026-05-04 16:20 | 26.74830 | 80.91037 | 33830 ft | 436 kts | 300° |
| 2026-05-04 16:22 | 26.84764 | 80.78003 | 33834 ft | 440 kts | 304° |
| 2026-05-04 16:23 | 26.96664 | 80.62374 | 33831 ft | 440 kts | 304° |
| 2026-05-04 16:25 | 27.08521 | 80.46744 | 33833 ft | 438 kts | 304° |
| 2026-05-04 16:26 | 27.22320 | 80.28485 | 33830 ft | 436 kts | 304° |
| 2026-05-04 16:28 | 27.30794 | 80.17235 | 33837 ft | 435 kts | 303° |
| 2026-05-04 16:29 | 27.43613 | 80.00159 | 33835 ft | 433 kts | 303° |
| 2026-05-04 16:31 | 27.53974 | 79.86308 | 33834 ft | 443 kts | 303° |
| 2026-05-04 16:32 | 27.65433 | 79.70940 | 33831 ft | 452 kts | 303° |
| 2026-05-04 16:33 | 27.72815 | 79.59822 | 33849 ft | 432 kts | 296° |
| 2026-05-04 16:34 | 27.77797 | 79.51367 | 33843 ft | 432 kts | 296° |
| 2026-05-04 16:35 | 27.87793 | 79.34345 | 33838 ft | 433 kts | 296° |
| 2026-05-04 16:36 | 27.92771 | 79.25840 | 33844 ft | 434 kts | 296° |
| 2026-05-04 16:37 | 27.97770 | 79.17284 | 33841 ft | 434 kts | 296° |
| 2026-05-04 16:38 | 28.04399 | 79.05914 | 33612 ft | 431 kts | 296° |
| 2026-05-04 16:39 | 28.09139 | 78.97768 | 32988 ft | 395 kts | 296° |
| 2026-05-04 16:39 | 28.11762 | 78.92473 | 32403 ft | 381 kts | 290° |
| 2026-05-04 16:40 | 28.14069 | 78.87211 | 31533 ft | 377 kts | 290° |
| 2026-05-04 16:40 | 28.16376 | 78.81912 | 30677 ft | 373 kts | 291° |
| 2026-05-04 16:41 | 28.18676 | 78.76616 | 29807 ft | 371 kts | 291° |
| 2026-05-04 16:41 | 28.22053 | 78.68828 | 28360 ft | 364 kts | 291° |
| 2026-05-04 16:42 | 28.25350 | 78.61211 | 26958 ft | 355 kts | 292° |
| 2026-05-04 16:43 | 28.27510 | 78.56212 | 26066 ft | 350 kts | 292° |
| 2026-05-04 16:43 | 28.29651 | 78.51252 | 25194 ft | 348 kts | 293° |
| 2026-05-04 16:43 | 28.30701 | 78.48818 | 24779 ft | 347 kts | 293° |
| 2026-05-04 16:44 | 28.34903 | 78.39056 | 23091 ft | 339 kts | 294° |
| 2026-05-04 16:45 | 28.36951 | 78.34291 | 22140 ft | 335 kts | 294° |
| 2026-05-04 16:46 | 28.39993 | 78.27201 | 20750 ft | 330 kts | 294° |
| 2026-05-04 16:46 | 28.41987 | 78.22548 | 19863 ft | 327 kts | 294° |
| 2026-05-04 16:47 | 28.43966 | 78.17923 | 18992 ft | 324 kts | 294° |
| 2026-05-04 16:47 | 28.45936 | 78.13314 | 18130 ft | 322 kts | 294° |
| 2026-05-04 16:48 | 28.48850 | 78.06489 | 16700 ft | 319 kts | 295° |
| 2026-05-04 16:48 | 28.49818 | 78.04220 | 16234 ft | 318 kts | 295° |
| 2026-05-04 16:49 | 28.51749 | 77.99689 | 15315 ft | 316 kts | 295° |
| 2026-05-04 16:49 | 28.53677 | 77.95236 | 14432 ft | 314 kts | 296° |
| 2026-05-04 16:50 | 28.55632 | 77.90791 | 13555 ft | 312 kts | 296° |
| 2026-05-04 16:50 | 28.57558 | 77.86402 | 12600 ft | 310 kts | 296° |
| 2026-05-04 16:51 | 28.59488 | 77.81995 | 11678 ft | 309 kts | 296° |
| 2026-05-04 16:51 | 28.60434 | 77.79835 | 11225 ft | 308 kts | 296° |
| 2026-05-04 16:51 | 28.62363 | 77.75426 | 10855 ft | 321 kts | 296° |
| 2026-05-04 16:52 | 28.64450 | 77.70648 | 10851 ft | 356 kts | 296° |
| 2026-05-04 16:52 | 28.65569 | 77.68086 | 10850 ft | 364 kts | 296° |
| 2026-05-04 16:53 | 28.67850 | 77.62863 | 10866 ft | 369 kts | 296° |
| 2026-05-04 16:53 | 28.71213 | 77.55148 | 10874 ft | 370 kts | 296° |
| 2026-05-04 16:54 | 28.72355 | 77.52525 | 10873 ft | 370 kts | 296° |
| 2026-05-04 16:55 | 28.76923 | 77.42010 | 10886 ft | 371 kts | 296° |
| 2026-05-04 16:55 | 28.79216 | 77.36724 | 10891 ft | 372 kts | 296° |
| 2026-05-04 16:56 | 28.81515 | 77.31418 | 10889 ft | 373 kts | 296° |
| 2026-05-04 16:56 | 28.82588 | 77.22816 | 10889 ft | 373 kts | 270° |
| 2026-05-04 16:57 | 28.82614 | 77.19855 | 10894 ft | 373 kts | 270° |
| 2026-05-04 16:57 | 28.82677 | 77.13931 | 10887 ft | 373 kts | 270° |
| 2026-05-04 16:58 | 28.81361 | 77.05442 | 10885 ft | 372 kts | 231° |
| 2026-05-04 16:58 | 28.79554 | 77.03314 | 10893 ft | 373 kts | 227° |
| 2026-05-04 16:59 | 28.76060 | 76.98967 | 10889 ft | 362 kts | 228° |
| 2026-05-04 17:00 | 28.72477 | 76.89687 | 9603 ft | 322 kts | 277° |
| 2026-05-04 17:00 | 28.73926 | 76.82390 | 7479 ft | 308 kts | 281° |
| 2026-05-04 17:01 | 28.74924 | 76.77734 | 6121 ft | 300 kts | 281° |
| 2026-05-04 17:01 | 28.75921 | 76.73140 | 4699 ft | 297 kts | 281° |
| 2026-05-04 17:02 | 28.76888 | 76.68652 | 4096 ft | 277 kts | 281° |
| 2026-05-04 17:02 | 28.76700 | 76.64671 | 4070 ft | 249 kts | 241° |
| 2026-05-04 17:03 | 28.75713 | 76.63078 | 3686 ft | 239 kts | 217° |
| 2026-05-04 17:03 | 28.74318 | 76.62098 | 3234 ft | 237 kts | 193° |
| 2026-05-04 17:03 | 28.71352 | 76.62573 | 3485 ft | 223 kts | 144° |
| 2026-05-04 17:04 | 28.69477 | 76.65338 | 3814 ft | 224 kts | 121° |
| 2026-05-04 17:04 | 28.67908 | 76.68478 | 3982 ft | 229 kts | 121° |
| 2026-05-04 17:05 | 28.66336 | 76.71661 | 4012 ft | 231 kts | 122° |
| 2026-05-04 17:05 | 28.64776 | 76.74866 | 4008 ft | 230 kts | 117° |
| 2026-05-04 17:06 | 28.63706 | 76.78194 | 4011 ft | 222 kts | 108° |
| 2026-05-04 17:06 | 28.63290 | 76.79889 | 4002 ft | 222 kts | 108° |
| 2026-05-04 17:07 | 28.62495 | 76.83327 | 2855 ft | 229 kts | 105° |
| 2026-05-04 17:07 | 28.62239 | 76.84446 | 2707 ft | 206 kts | 105° |
| 2026-05-04 17:07 | 28.61806 | 76.86333 | 2697 ft | 179 kts | 105° |
| 2026-05-04 17:07 | 28.61481 | 76.87749 | 2652 ft | 182 kts | 105° |
| 2026-05-04 17:08 | 28.61165 | 76.89124 | 2624 ft | 182 kts | 106° |
| 2026-05-04 17:08 | 28.60530 | 76.91895 | 2609 ft | 179 kts | 105° |
| 2026-05-04 17:08 | 28.60227 | 76.93218 | 2597 ft | 163 kts | 106° |
| 2026-05-04 17:09 | 28.59942 | 76.94463 | 2623 ft | 162 kts | 106° |
| 2026-05-04 17:09 | 28.59661 | 76.95685 | 2587 ft | 157 kts | 106° |
| 2026-05-04 17:09 | 28.59388 | 76.96875 | 2598 ft | 157 kts | 105° |
| 2026-05-04 17:10 | 28.58828 | 76.99319 | 2412 ft | 159 kts | 105° |
| 2026-05-04 17:10 | 28.58054 | 77.02697 | 1871 ft | 136 kts | 105° |
| 2026-05-04 17:11 | 28.57808 | 77.03740 | 1690 ft | 138 kts | 104° |
| 2026-05-04 17:11 | 28.57569 | 77.04809 | 1453 ft | 142 kts | 103° |
| 2026-05-04 17:11 | 28.57054 | 77.07036 | 1025 ft | 146 kts | 102° |
| 2026-05-04 17:12 | 28.56794 | 77.08167 | 844 ft | 147 kts | 102° |
| 2026-05-04 17:12 | 28.56339 | 77.10170 | 751 ft | 105 kts | 104° |
| 2026-05-04 17:13 | 28.56247 | 77.11011 | 752 ft | 0 kts | 72° |
| 2026-05-04 17:14 | 28.56264 | 77.11201 | 751 ft | 6 kts | 104° |
| 2026-05-04 17:14 | 28.56256 | 77.11233 | 752 ft | 6 kts | 104° |
| 2026-05-04 17:14 | 28.56355 | 77.11286 | 749 ft | 15 kts | 14° |
| 2026-05-04 17:15 | 28.56427 | 77.11308 | 749 ft | 5 kts | 37° |
| 2026-05-04 17:15 | 28.56428 | 77.11348 | 756 ft | 2 kts | 108° |
| 2026-05-04 17:16 | 28.56377 | 77.11581 | 755 ft | 26 kts | 103° |